Greenbrier, AR

12:33 AM CST on February 01, 2015 (GMT -0600)
North Heights | Change Station
CLOSE
Current Station
Personal Weather Station
Location: Greenbrier, AR
Elevation: 420 ft
Nearby Weather Stations

Elev 420 ft 35.25 °N, 92.39 °W | Updated 6 minutes ago

Overcast
Overcast
41.2 °F
Feels Like 39 °F
N
3.7
Wind Variable Wind from ESE

Today
High -- | Low -- °F
--% Chance of Precip.
Yesterday
High -- | Low -- °F
Precip. -- in
7:08 AM 5:37 PM
Waxing Gibbous, 93% visible
Pressure 30.02 in
Visibility 10.0 miles
Clouds Overcast 3300 ft
Windchill 39 °F
Dew Point 31 °F
Humidity 67%
Rainfall 0.00 in
Snow Depth Not available.
UV 0 out of 12
Pollen 5.20 out of 12
Air Quality Not available.
Flu Activity Not available.
METAR KLRF 010558Z AUTO 08002KT 10SM OVC033 06/00 A3001 RMK AO2 SLP166 T00571004 10067 20041 400830019 57030

More Conditions Fewer Conditions

Pressure 30.02 in
Visibility 10.0 miles
Clouds Overcast 3300 ft
Windchill 39 °F
Dew Point 31 °F
Humidity 67%
Rainfall 0.00 in
Snow Depth Not available.
UV 0 out of 12
Pollen 5.20 out of 12
Air Quality Not available.
Flu Activity Not available.
METAR KLRF 010558Z AUTO 08002KT 10SM OVC033 06/00 A3001 RMK AO2 SLP166 T00571004 10067 20041 400830019 57030

More Conditions Fewer Conditions

10-Day Weather Forecast

Almanac

Astronomy

Feb. 01, 2015 Rise Set
Actual Time
Civil Twilight
Nautical Twilight
Astronomical Twilight
Moon
Length of Visible Light
Length of Day
Tomorrow will be .
, % of the Moon is Illuminated

Today's Extremes

State Highs State Lows

Community

WunderPhotos

Upload Photos

1,792,323 photos uploaded!

WunderBlogs® & News

Nearby

Air Quality

  Air Quality AQ Index Pollutant
Not available.

Snow Depth

Station Depth Elevation

Earthquake Activity

City Distance Mag. Time & Date
Minimum magnitude displayed is 2.5.

Coastal Water Temperatures

Place Temperature

Nearby Weather Stations